Time;durP1;ratioP1;P1;durP2;ratioP2;P2;SDS_P1;SDS_P2;PMS_P1;PMS_P2;Temp;Humidity;BMP_temperature;BMP_pressure;BME280_temperature;BME280_humidity;BME280_pressure;Samples;Min_cycle;Max_cycle;Signal;HPM_P1;HPM_P2
2022/09/18 00:02:25;;;;;;;15.07;3.27;;;10.40;87.60;;;;;;5059186;28;20183;-89
2022/09/18 00:04:51;;;;;;;13.83;2.90;;;10.50;87.40;;;;;;5059189;28;20179;-89
2022/09/18 00:07:17;;;;;;;16.33;3.13;;;10.70;87.10;;;;;;5077525;28;20191;-89
2022/09/18 00:09:43;;;;;;;12.57;2.43;;;10.70;86.30;;;;;;5077210;28;20253;-89
2022/09/18 00:12:08;;;;;;;13.50;3.07;;;10.80;86.20;;;;;;5058916;28;20676;-89
2022/09/18 00:14:34;;;;;;;16.13;2.87;;;10.90;85.90;;;;;;5059526;28;20175;-88
2022/09/18 00:17:00;;;;;;;10.73;2.70;;;10.80;84.90;;;;;;5077482;28;20260;-88
2022/09/18 00:19:25;;;;;;;11.70;2.40;;;10.90;84.10;;;;;;5060006;28;20179;-89
2022/09/18 00:21:51;;;;;;;10.17;2.53;;;10.90;83.70;;;;;;5060158;28;20195;-89
2022/09/18 00:24:18;;;;;;;12.17;2.73;;;10.80;83.40;;;;;;5059532;28;20175;-89
2022/09/18 00:26:44;;;;;;;9.90;2.50;;;10.90;83.00;;;;;;5059132;28;20278;-89
2022/09/18 00:29:11;;;;;;;13.10;2.87;;;11.00;82.90;;;;;;5076674;28;20294;-89
2022/09/18 00:31:37;;;;;;;17.53;2.80;;;11.10;83.30;;;;;;5059082;28;20171;-90
2022/09/18 00:34:07;;;;;;;11.33;2.63;;;11.10;83.60;;;;;;5076642;28;20220;-89
2022/09/18 00:36:34;;;;;;;14.77;2.80;;;11.20;83.70;;;;;;5059965;28;20198;-88
2022/09/18 00:38:59;;;;;;;16.70;2.90;;;11.20;83.80;;;;;;5060661;28;20183;-89
2022/09/18 00:41:30;;;;;;;16.67;4.37;;;11.20;83.50;;;;;;5060465;28;20175;-89
2022/09/18 00:44:33;;;;;;;14.40;2.73;;;11.10;83.60;;;;;;5058491;28;20230;-89
2022/09/18 00:47:08;;;;;;;9.23;2.70;;;11.10;83.40;;;;;;5078244;28;20187;-89
2022/09/18 00:49:37;;;;;;;18.97;3.27;;;11.10;83.00;;;;;;5058174;28;20321;-91
2022/09/18 00:52:03;;;;;;;13.37;2.67;;;11.10;83.20;;;;;;5056729;28;20171;-89
2022/09/18 00:54:39;;;;;;;17.40;3.03;;;11.00;82.40;;;;;;5058687;28;20220;-90
2022/09/18 00:57:09;;;;;;;15.50;2.93;;;11.10;82.40;;;;;;5059133;28;20289;-91
2022/09/18 00:59:36;;;;;;;21.50;3.10;;;11.00;82.50;;;;;;5076828;28;20209;-90
2022/09/18 01:02:02;;;;;;;12.27;2.87;;;11.00;83.00;;;;;;5076058;28;20278;-92
2022/09/18 01:04:29;;;;;;;12.27;3.03;;;11.00;83.40;;;;;;5058262;28;20676;-92
2022/09/18 01:06:58;;;;;;;17.30;3.27;;;10.90;84.00;;;;;;5058651;28;20199;-90
2022/09/18 01:09:40;;;;;;;14.67;2.90;;;10.80;84.20;;;;;;5057778;28;20233;-89
2022/09/18 01:12:21;;;;;;;13.67;3.23;;;10.80;84.20;;;;;;5057658;28;20244;-90
2022/09/18 01:15:08;;;;;;;8.33;2.43;;;10.70;84.00;;;;;;5057787;28;20171;-89
2022/09/18 01:17:58;;;;;;;20.97;2.90;;;10.70;84.40;;;;;;5057560;28;20191;-90
2022/09/18 01:20:58;;;;;;;19.07;3.07;;;10.60;84.80;;;;;;5057527;28;20233;-91
2022/09/18 01:23:55;;;;;;;13.97;2.70;;;10.50;85.40;;;;;;5057478;28;20649;-90
2022/09/18 01:26:39;;;;;;;15.97;3.87;;;10.40;85.60;;;;;;5075708;28;20195;-90
2022/09/18 01:29:24;;;;;;;12.73;2.77;;;10.30;85.90;;;;;;5057470;28;20230;-91
2022/09/18 01:32:00;;;;;;;15.57;3.00;;;10.30;86.10;;;;;;5057278;28;20222;-90
2022/09/18 01:34:39;;;;;;;16.20;3.10;;;10.30;86.30;;;;;;5057437;28;20266;-90
2022/09/18 01:37:15;;;;;;;24.30;3.40;;;10.20;86.40;;;;;;5075108;28;20188;-90
2022/09/18 01:39:51;;;;;;;15.07;3.20;;;10.10;86.60;;;;;;5057192;28;20171;-90
2022/09/18 01:42:21;;;;;;;15.87;2.50;;;10.10;86.80;;;;;;5057208;28;20265;-90
2022/09/18 01:44:48;;;;;;;16.77;3.30;;;10.00;87.10;;;;;;5057156;28;20186;-90
2022/09/18 01:47:15;;;;;;;17.57;3.00;;;10.00;87.50;;;;;;5074917;28;20687;-90
2022/09/18 01:49:47;;;;;;;19.20;3.20;;;10.00;87.80;;;;;;5056891;28;20209;-90
2022/09/18 01:52:23;;;;;;;31.23;3.67;;;10.00;88.00;;;;;;5075097;28;20569;-90
2022/09/18 01:54:52;;;;;;;17.87;3.33;;;10.00;88.10;;;;;;5056907;28;20683;-90
2022/09/18 01:57:35;;;;;;;11.30;3.00;;;10.00;88.10;;;;;;5056758;28;20203;-90
2022/09/18 02:00:08;;;;;;;18.97;4.03;;;10.00;88.10;;;;;;5056822;28;20179;-91
2022/09/18 02:02:41;;;;;;;19.03;3.43;;;10.10;88.20;;;;;;5057006;28;20224;-91
2022/09/18 02:05:11;;;;;;;17.60;3.30;;;10.30;88.10;;;;;;5074607;28;20534;-91
2022/09/18 02:07:50;;;;;;;15.30;2.93;;;10.20;87.90;;;;;;5056529;28;20744;-90
2022/09/18 02:10:18;;;;;;;24.07;3.77;;;10.30;87.90;;;;;;5056570;28;20206;-89
2022/09/18 02:12:45;;;;;;;19.57;2.90;;;10.30;87.90;;;;;;5056532;28;20223;-90
2022/09/18 02:15:13;;;;;;;19.27;3.37;;;10.30;87.60;;;;;;5056811;28;20521;-90
2022/09/18 02:17:48;;;;;;;20.17;3.67;;;10.40;87.50;;;;;;5056279;28;20238;-90
2022/09/18 02:20:21;;;;;;;16.27;3.03;;;10.30;87.40;;;;;;5056405;28;20206;-89
2022/09/18 02:22:49;;;;;;;16.77;3.00;;;10.40;87.00;;;;;;5056801;28;20195;-90
2022/09/18 02:25:21;;;;;;;12.80;2.53;;;10.40;86.90;;;;;;5056374;28;20269;-90
2022/09/18 02:27:48;;;;;;;12.70;2.47;;;10.40;86.70;;;;;;5056190;28;20218;-90
2022/09/18 02:30:14;;;;;;;10.73;2.17;;;10.40;86.50;;;;;;5055996;28;20207;-90
2022/09/18 02:32:40;;;;;;;15.63;2.70;;;10.30;86.40;;;;;;5073916;28;20266;-90
2022/09/18 02:35:08;;;;;;;13.73;2.60;;;10.40;86.40;;;;;;5056084;28;20183;-91
2022/09/18 02:37:51;;;;;;;11.53;2.50;;;10.40;86.20;;;;;;5073736;28;20207;-90
2022/09/18 02:40:46;;;;;;;9.33;2.27;;;10.30;85.90;;;;;;5056157;28;20307;-90
2022/09/18 02:43:18;;;;;;;8.60;2.23;;;10.40;86.00;;;;;;5056011;28;20178;-90
2022/09/18 02:46:13;;;;;;;10.23;2.40;;;10.30;85.70;;;;;;5056661;28;20175;-90
2022/09/18 02:48:48;;;;;;;10.60;2.30;;;10.30;85.90;;;;;;5055927;28;20206;-90
2022/09/18 02:51:33;;;;;;;12.90;2.23;;;10.30;85.90;;;;;;5056735;28;20261;-90
2022/09/18 02:54:17;;;;;;;13.00;2.60;;;10.30;86.00;;;;;;5055917;28;20174;-90
2022/09/18 02:56:48;;;;;;;11.37;2.80;;;10.30;85.90;;;;;;5055637;28;20249;-91
2022/09/18 02:59:28;;;;;;;14.37;3.60;;;10.20;85.80;;;;;;5055726;28;20175;-90
2022/09/18 03:01:56;;;;;;;8.80;2.47;;;10.10;86.00;;;;;;5055693;28;20167;-90
2022/09/18 03:04:24;;;;;;;16.03;2.93;;;10.10;86.00;;;;;;5055660;28;20245;-90
2022/09/18 03:06:51;;;;;;;9.03;2.23;;;10.00;86.20;;;;;;5055567;28;20195;-90
2022/09/18 03:09:16;;;;;;;11.10;2.33;;;10.00;86.40;;;;;;5055368;28;20210;-90
2022/09/18 03:11:43;;;;;;;10.53;2.17;;;10.00;86.40;;;;;;5055521;28;20595;-90
2022/09/18 03:14:09;;;;;;;10.40;2.03;;;9.90;86.70;;;;;;5054850;28;20175;-90
2022/09/18 03:16:34;;;;;;;14.33;3.00;;;9.90;86.70;;;;;;5055360;28;20595;-90
2022/09/18 03:19:00;;;;;;;12.80;2.73;;;9.90;86.50;;;;;;5055384;28;20645;-89
2022/09/18 03:21:26;;;;;;;16.73;3.17;;;9.90;86.40;;;;;;5055481;28;20186;-92
2022/09/18 03:23:51;;;;;;;10.63;2.47;;;9.90;86.30;;;;;;5055516;28;20182;-91
2022/09/18 03:26:17;;;;;;;7.63;2.33;;;9.90;86.20;;;;;;5055403;28;20199;-90
2022/09/18 03:28:43;;;;;;;15.03;3.10;;;9.80;86.10;;;;;;5055109;28;20552;-90
2022/09/18 03:31:12;;;;;;;15.90;2.40;;;9.80;86.00;;;;;;5055251;28;20183;-90
2022/09/18 03:33:37;;;;;;;14.97;2.63;;;9.80;86.00;;;;;;5073142;28;20223;-90
2022/09/18 03:36:07;;;;;;;17.80;2.97;;;9.80;86.10;;;;;;5055163;28;20217;-90
2022/09/18 03:38:33;;;;;;;9.90;2.57;;;9.70;86.00;;;;;;5073143;28;20637;-90
2022/09/18 03:40:59;;;;;;;16.50;2.60;;;9.80;86.30;;;;;;5055452;28;20177;-90
2022/09/18 03:43:28;;;;;;;13.77;2.87;;;9.70;86.30;;;;;;5055298;28;20175;-90
2022/09/18 03:45:53;;;;;;;14.23;2.70;;;9.70;86.50;;;;;;5055268;28;20185;-89
2022/09/18 03:48:19;;;;;;;11.37;2.40;;;9.80;86.50;;;;;;5055147;28;20175;-89
2022/09/18 03:50:47;;;;;;;15.73;2.50;;;9.80;86.30;;;;;;5054984;28;20202;-91
2022/09/18 03:53:13;;;;;;;8.97;1.90;;;9.90;86.20;;;;;;5072975;28;20167;-90
2022/09/18 03:55:38;;;;;;;9.83;2.23;;;10.00;86.10;;;;;;5054908;28;20587;-89
2022/09/18 03:58:04;;;;;;;9.30;2.27;;;10.10;85.40;;;;;;5055371;28;20356;-90
2022/09/18 04:00:29;;;;;;;11.13;2.17;;;10.00;85.10;;;;;;5056060;28;20661;-90
2022/09/18 04:02:55;;;;;;;20.43;2.33;;;10.00;85.10;;;;;;5055196;28;20183;-89
2022/09/18 04:05:20;;;;;;;8.00;2.70;;;10.00;85.70;;;;;;5054953;28;20182;-90
2022/09/18 04:07:46;;;;;;;18.43;2.50;;;10.00;86.10;;;;;;5058705;28;20196;-91
2022/09/18 04:10:12;;;;;;;14.13;2.83;;;9.90;86.00;;;;;;5056658;28;20207;-91
2022/09/18 04:12:37;;;;;;;10.40;2.57;;;9.80;87.40;;;;;;5055162;28;20175;-91
2022/09/18 04:15:03;;;;;;;13.67;3.70;;;9.80;88.40;;;;;;5054969;28;20225;-90
2022/09/18 04:17:29;;;;;;;11.13;2.40;;;9.80;89.00;;;;;;5054742;28;20203;-91
2022/09/18 04:19:54;;;;;;;9.43;1.87;;;9.80;89.30;;;;;;5055783;28;20186;-90
2022/09/18 04:22:21;;;;;;;11.63;1.90;;;9.70;89.30;;;;;;5073110;28;20278;-90
2022/09/18 04:24:46;;;;;;;9.90;2.10;;;9.70;88.60;;;;;;5055273;28;20262;-91
2022/09/18 04:27:12;;;;;;;11.43;2.93;;;9.70;88.60;;;;;;5058725;28;20226;-90
2022/09/18 04:29:37;;;;;;;15.07;2.67;;;9.70;88.60;;;;;;5058569;28;20203;-91
2022/09/18 04:32:04;;;;;;;19.43;2.73;;;9.60;88.70;;;;;;5058565;28;20190;-91
2022/09/18 04:34:30;;;;;;;9.73;2.70;;;9.60;88.80;;;;;;5058754;28;20190;-91
2022/09/18 04:36:55;;;;;;;16.40;2.40;;;9.60;89.00;;;;;;5058326;28;20677;-91
2022/09/18 04:39:21;;;;;;;9.60;2.33;;;9.70;89.20;;;;;;5058483;28;20187;-91
2022/09/18 04:41:48;;;;;;;17.50;3.00;;;9.60;89.40;;;;;;5058213;28;20183;-91
2022/09/18 04:44:13;;;;;;;7.63;2.43;;;9.60;89.60;;;;;;5058675;28;20181;-91
2022/09/18 04:46:39;;;;;;;15.83;2.17;;;9.60;89.90;;;;;;5058384;28;20202;-91
2022/09/18 04:49:04;;;;;;;11.90;3.03;;;9.60;90.00;;;;;;5058564;28;20698;-91
2022/09/18 04:51:30;;;;;;;14.73;3.07;;;9.60;90.10;;;;;;5058428;28;20175;-92
2022/09/18 04:53:55;;;;;;;12.77;2.53;;;9.60;90.20;;;;;;5059031;28;20179;-91
2022/09/18 04:56:21;;;;;;;17.37;2.70;;;9.50;90.30;;;;;;5058461;28;20228;-92
2022/09/18 04:58:46;;;;;;;20.10;3.03;;;9.50;90.20;;;;;;5058397;28;20168;-91
2022/09/18 05:01:12;;;;;;;15.03;3.80;;;9.50;90.10;;;;;;5058508;28;20183;-92
2022/09/18 05:03:38;;;;;;;19.20;3.17;;;9.50;90.00;;;;;;5058409;28;20174;-92
2022/09/18 05:06:04;;;;;;;10.57;2.50;;;9.50;90.10;;;;;;5058452;28;20198;-92
2022/09/18 05:08:31;;;;;;;19.53;3.00;;;9.50;90.00;;;;;;5059063;28;20179;-92
2022/09/18 05:10:57;;;;;;;19.23;2.83;;;9.50;90.10;;;;;;5058909;28;20203;-91
2022/09/18 05:13:22;;;;;;;12.47;2.60;;;9.50;90.00;;;;;;5059078;28;20657;-92
2022/09/18 05:15:52;;;;;;;9.13;2.30;;;9.60;90.00;;;;;;5058613;28;20171;-91
2022/09/18 05:18:18;;;;;;;8.83;2.13;;;9.50;89.70;;;;;;5059806;28;20202;-91
2022/09/18 05:20:43;;;;;;;5.70;1.80;;;9.70;89.10;;;;;;5058243;28;20260;-93
2022/09/18 05:23:09;;;;;;;7.57;1.80;;;9.80;88.80;;;;;;5060430;28;20180;-92
2022/09/18 05:25:34;;;;;;;10.90;2.00;;;9.80;88.80;;;;;;5058477;28;20779;-91
2022/09/18 05:28:02;;;;;;;7.07;1.67;;;9.80;88.90;;;;;;5058318;28;20206;-91
2022/09/18 05:30:28;;;;;;;10.70;2.30;;;9.80;88.70;;;;;;5058290;28;20553;-92
2022/09/18 05:32:59;;;;;;;7.73;2.20;;;9.80;88.60;;;;;;5057659;28;20175;-91
2022/09/18 05:35:27;;;;;;;8.37;2.20;;;9.80;88.50;;;;;;5057953;28;20216;-91
2022/09/18 05:37:53;;;;;;;8.13;2.17;;;9.80;88.50;;;;;;5056810;28;20195;-91
2022/09/18 05:40:25;;;;;;;10.53;2.57;;;9.80;88.70;;;;;;5075295;28;20182;-92
2022/09/18 05:42:52;;;;;;;13.17;2.43;;;9.80;88.90;;;;;;5057405;28;20649;-91
2022/09/18 05:45:18;;;;;;;5.20;1.50;;;9.80;89.10;;;;;;5057346;28;20233;-91
2022/09/18 05:47:56;;;;;;;9.27;1.90;;;9.80;89.20;;;;;;5057742;28;20635;-91
2022/09/18 05:50:22;;;;;;;8.33;2.00;;;9.60;89.10;;;;;;5057315;28;20201;-91
2022/09/18 05:53:21;;;;;;;6.13;1.90;;;9.50;89.20;;;;;;5057214;28;20180;-92
2022/09/18 05:55:47;;;;;;;8.10;2.30;;;9.60;89.40;;;;;;5054100;28;20237;-91
2022/09/18 05:58:16;;;;;;;13.87;3.00;;;9.70;89.50;;;;;;5057543;28;20590;-92
2022/09/18 06:00:43;;;;;;;10.80;2.07;;;9.70;89.50;;;;;;5058230;28;20179;-91
2022/09/18 06:03:12;;;;;;;13.20;2.40;;;9.60;89.50;;;;;;5057689;28;20566;-92
2022/09/18 06:05:38;;;;;;;8.67;3.20;;;9.60;89.60;;;;;;5057811;28;20180;-92
2022/09/18 06:08:09;;;;;;;7.97;1.90;;;9.70;89.60;;;;;;5058650;28;20194;-91
2022/09/18 06:10:36;;;;;;;13.60;2.50;;;9.60;89.30;;;;;;5057544;28;20237;-91
2022/09/18 06:13:06;;;;;;;12.30;2.50;;;9.60;89.30;;;;;;5057256;28;20186;-92
2022/09/18 06:15:33;;;;;;;13.53;2.70;;;9.60;89.50;;;;;;5058145;28;20183;-92
2022/09/18 06:17:58;;;;;;;13.63;2.53;;;9.70;89.70;;;;;;5060066;28;20199;-92
2022/09/18 06:20:24;;;;;;;9.60;2.30;;;9.70;89.80;;;;;;5059722;28;20598;-91
2022/09/18 06:22:50;;;;;;;9.33;2.50;;;9.70;89.90;;;;;;5061956;28;20203;-92
2022/09/18 06:25:18;;;;;;;13.53;2.70;;;9.60;89.90;;;;;;5060387;28;20208;-91
2022/09/18 06:27:44;;;;;;;10.60;2.63;;;9.50;90.20;;;;;;5060992;28;20199;-92
2022/09/18 06:30:10;;;;;;;14.53;3.17;;;9.60;90.60;;;;;;5061648;28;20256;-91
2022/09/18 06:32:35;;;;;;;11.93;2.47;;;9.80;90.90;;;;;;5077261;28;20175;-91
2022/09/18 06:35:01;;;;;;;12.03;2.40;;;9.80;90.70;;;;;;5061463;28;20308;-91
2022/09/18 06:37:27;;;;;;;14.57;2.67;;;9.80;90.70;;;;;;5062129;28;20215;-91
2022/09/18 06:39:52;;;;;;;13.13;2.73;;;10.00;90.80;;;;;;5061528;28;20190;-92
2022/09/18 06:42:18;;;;;;;14.27;3.07;;;10.20;91.00;;;;;;5061872;28;20187;-92
2022/09/18 06:44:43;;;;;;;12.23;2.77;;;10.20;90.70;;;;;;5062176;28;20190;-92
2022/09/18 06:47:09;;;;;;;8.33;2.13;;;10.10;90.60;;;;;;5060121;28;20199;-91
2022/09/18 06:49:34;;;;;;;16.27;3.20;;;10.00;90.30;;;;;;5060122;28;20207;-92
2022/09/18 06:52:00;;;;;;;13.10;2.57;;;10.00;90.20;;;;;;5061214;28;20269;-92
2022/09/18 06:54:26;;;;;;;14.90;2.50;;;10.10;90.20;;;;;;5077175;28;20172;-92
2022/09/18 06:56:51;;;;;;;15.90;3.37;;;10.20;89.60;;;;;;5060051;28;20195;-91
2022/09/18 06:59:17;;;;;;;11.40;2.73;;;10.40;89.60;;;;;;5058751;28;20268;-91
2022/09/18 07:01:45;;;;;;;15.10;2.83;;;10.40;89.00;;;;;;5075155;28;20175;-91
2022/09/18 07:04:10;;;;;;;15.17;3.07;;;10.20;88.90;;;;;;5057548;28;20720;-91
2022/09/18 07:06:36;;;;;;;12.27;2.73;;;10.10;88.90;;;;;;5058810;28;20237;-91
2022/09/18 07:09:02;;;;;;;16.50;3.33;;;10.10;88.90;;;;;;5057317;28;20207;-91
2022/09/18 07:11:27;;;;;;;11.37;2.90;;;10.20;88.40;;;;;;5058312;28;20218;-91
2022/09/18 07:13:53;;;;;;;14.10;2.73;;;10.20;88.30;;;;;;5057049;28;20217;-91
2022/09/18 07:16:18;;;;;;;12.27;2.87;;;10.30;88.40;;;;;;5057587;28;20673;-92
2022/09/18 07:18:47;;;;;;;12.17;2.10;;;10.40;88.30;;;;;;5057064;28;20636;-91
2022/09/18 07:21:12;;;;;;;9.93;2.10;;;10.50;87.50;;;;;;5056946;28;20673;-91
2022/09/18 07:23:38;;;;;;;13.70;3.07;;;10.50;87.20;;;;;;5056247;28;20183;-91
2022/09/18 07:26:04;;;;;;;9.23;2.03;;;10.50;86.60;;;;;;5056255;28;20203;-91
2022/09/18 07:28:29;;;;;;;11.23;2.47;;;10.70;87.30;;;;;;5055806;28;20178;-91
2022/09/18 07:30:55;;;;;;;7.47;2.07;;;10.70;87.00;;;;;;5055494;28;20203;-91
2022/09/18 07:33:21;;;;;;;16.47;2.50;;;10.70;86.40;;;;;;5055833;28;20262;-90
2022/09/18 07:35:47;;;;;;;16.20;2.70;;;10.70;87.10;;;;;;5073554;28;20168;-91
2022/09/18 07:38:12;;;;;;;19.63;2.93;;;10.80;87.30;;;;;;5055702;28;20659;-90
2022/09/18 07:40:42;;;;;;;13.03;3.90;;;10.80;86.70;;;;;;5056006;28;20179;-91
2022/09/18 07:43:09;;;;;;;10.37;2.63;;;11.00;86.90;;;;;;5055796;28;20175;-89
2022/09/18 07:45:35;;;;;;;11.80;2.27;;;11.10;86.40;;;;;;5055623;28;20214;-89
2022/09/18 07:48:04;;;;;;;18.37;2.80;;;11.30;86.10;;;;;;5073390;28;20195;-90
2022/09/18 07:50:29;;;;;;;8.83;2.33;;;11.30;86.20;;;;;;5056228;28;20203;-90
2022/09/18 07:52:57;;;;;;;22.77;2.77;;;11.10;85.40;;;;;;5056159;28;20190;-90
2022/09/18 07:55:24;;;;;;;9.60;2.23;;;11.20;86.10;;;;;;5055391;28;20263;-91
2022/09/18 07:57:58;;;;;;;12.77;2.40;;;11.30;85.50;;;;;;5055434;28;20578;-91
2022/09/18 08:00:25;;;;;;;5.17;1.90;;;11.30;85.50;;;;;;5056552;28;20180;-89
2022/09/18 08:03:01;;;;;;;10.20;2.40;;;11.20;85.00;;;;;;5059421;28;20175;-91
2022/09/18 08:05:26;;;;;;;12.77;2.40;;;11.20;85.30;;;;;;5060460;28;20651;-90
2022/09/18 08:07:52;;;;;;;16.90;3.03;;;11.20;85.70;;;;;;5078810;28;20191;-91
2022/09/18 08:10:17;;;;;;;9.10;2.20;;;11.30;85.60;;;;;;5060621;28;20669;-91
2022/09/18 08:12:43;;;;;;;13.50;2.47;;;11.50;85.80;;;;;;5060086;28;20185;-91
2022/09/18 08:15:09;;;;;;;12.87;2.80;;;11.90;85.80;;;;;;5062974;28;20175;-91
2022/09/18 08:17:42;;;;;;;10.77;2.20;;;12.00;85.10;;;;;;5068795;28;20372;-91
2022/09/18 08:20:08;;;;;;;14.73;2.50;;;12.30;85.40;;;;;;5062760;28;20202;-92
2022/09/18 08:22:37;;;;;;;16.67;2.70;;;12.60;82.10;;;;;;5064363;28;20199;-93
2022/09/18 08:25:06;;;;;;;15.10;2.03;;;12.60;81.40;;;;;;5068347;28;20182;-93
2022/09/18 08:27:35;;;;;;;15.13;2.07;;;12.50;80.90;;;;;;5065984;28;20200;-92
2022/09/18 08:30:01;;;;;;;11.57;2.20;;;12.50;80.20;;;;;;5067126;28;20200;-91
2022/09/18 08:32:26;;;;;;;7.87;1.80;;;12.10;79.20;;;;;;5069850;28;20202;-92
2022/09/18 08:34:52;;;;;;;6.60;2.20;;;11.30;81.00;;;;;;5077866;28;20202;-93
2022/09/18 08:37:17;;;;;;;5.83;2.00;;;11.00;82.80;;;;;;5076337;28;20266;-91
2022/09/18 08:39:43;;;;;;;6.73;1.90;;;11.00;82.80;;;;;;5071854;28;20179;-92
2022/09/18 08:42:37;;;;;;;8.23;2.23;;;10.80;83.80;;;;;;5070679;28;20175;-93
2022/09/18 08:45:33;;;;;;;9.83;1.60;;;10.70;84.20;;;;;;5069158;28;20163;-92
2022/09/18 08:48:08;;;;;;;10.47;2.97;;;10.60;84.50;;;;;;5065352;28;20202;-93
2022/09/18 08:50:38;;;;;;;8.77;2.07;;;10.60;84.00;;;;;;5064223;28;20202;-92
2022/09/18 08:53:16;;;;;;;7.43;1.93;;;10.50;83.80;;;;;;5063876;28;20187;-92
2022/09/18 08:55:46;;;;;;;11.73;3.20;;;10.50;83.70;;;;;;5062890;28;20602;-92
2022/09/18 08:58:15;;;;;;;10.03;2.40;;;10.60;84.60;;;;;;5060482;28;20229;-90
2022/09/18 09:00:48;;;;;;;10.27;1.93;;;10.70;85.40;;;;;;5062344;28;20175;-93
2022/09/18 09:03:29;;;;;;;12.60;2.87;;;10.80;86.00;;;;;;5062170;28;20182;-92
2022/09/18 09:06:02;;;;;;;8.73;2.30;;;11.00;86.60;;;;;;5062463;28;20270;-91
2022/09/18 09:08:58;;;;;;;7.30;1.77;;;10.80;85.20;;;;;;5059988;28;20313;-91
2022/09/18 09:11:49;;;;;;;12.53;2.27;;;10.80;86.10;;;;;;5065009;28;20176;-92
2022/09/18 09:14:44;;;;;;;7.13;1.67;;;10.80;86.60;;;;;;5094638;28;20333;-92
2022/09/18 09:17:38;;;;;;;13.00;2.47;;;11.10;87.30;;;;;;5075624;28;20230;-92
2022/09/18 09:20:33;;;;;;;8.70;2.47;;;11.30;87.70;;;;;;5067211;28;20198;-92
2022/09/18 09:23:06;;;;;;;10.40;2.43;;;11.70;88.40;;;;;;5065281;28;20206;-92
2022/09/18 09:25:59;;;;;;;13.33;2.30;;;12.00;88.20;;;;;;5062118;28;20518;-92
2022/09/18 09:28:46;;;;;;;9.90;1.80;;;12.10;87.60;;;;;;5061789;28;20684;-92
2022/09/18 09:31:14;;;;;;;9.57;2.20;;;11.90;85.20;;;;;;5067647;28;20543;-92
2022/09/18 09:33:51;;;;;;;7.43;2.10;;;11.70;84.80;;;;;;5066776;28;20171;-91
2022/09/18 09:36:20;;;;;;;6.53;1.80;;;11.50;83.70;;;;;;5069107;28;20613;-91
2022/09/18 09:39:19;;;;;;;6.20;1.97;;;11.20;82.50;;;;;;5058985;28;20182;-90
2022/09/18 09:41:55;;;;;;;9.50;2.50;;;11.20;82.90;;;;;;5061567;28;20167;-92
2022/09/18 09:44:32;;;;;;;9.83;2.27;;;11.40;83.30;;;;;;5072076;28;20163;-93
2022/09/18 09:47:29;;;;;;;10.70;3.13;;;11.70;84.50;;;;;;5081604;28;20219;-94
2022/09/18 09:50:09;;;;;;;9.50;2.43;;;12.20;84.80;;;;;;5076213;28;20207;-92
2022/09/18 09:52:38;;;;;;;10.50;2.53;;;12.40;83.00;;;;;;5073673;28;20186;-92
2022/09/18 09:55:13;;;;;;;14.00;3.53;;;12.70;81.70;;;;;;5078086;28;20177;-92
2022/09/18 09:58:24;;;;;;;8.93;2.00;;;12.90;81.10;;;;;;5070012;28;20303;-91
2022/09/18 10:01:08;;;;;;;8.43;1.87;;;12.90;77.90;;;;;;5071266;28;20254;-92
2022/09/18 10:04:02;;;;;;;16.07;2.17;;;13.00;77.20;;;;;;5077586;28;20163;-92
2022/09/18 10:06:47;;;;;;;15.80;2.47;;;13.30;78.20;;;;;;5072310;28;20225;-92
2022/09/18 10:09:33;;;;;;;10.73;2.47;;;13.50;78.60;;;;;;5062823;28;20249;-92
2022/09/18 10:12:23;;;;;;;8.57;2.90;;;13.50;78.10;;;;;;5057237;28;20173;-90
2022/09/18 10:14:51;;;;;;;12.47;2.97;;;13.20;77.60;;;;;;5058107;28;20194;-90
2022/09/18 10:17:20;;;;;;;6.97;1.90;;;12.90;78.10;;;;;;5058770;28;20570;-90
2022/09/18 10:19:46;;;;;;;12.00;2.13;;;12.50;76.80;;;;;;5060515;28;20611;-91
2022/09/18 10:22:16;;;;;;;5.67;1.40;;;11.90;80.10;;;;;;5058575;28;20286;-89
2022/09/18 10:24:47;;;;;;;11.10;5.67;;;11.10;79.90;;;;;;5062925;28;20182;-90
2022/09/18 10:27:13;;;;;;;13.23;2.60;;;10.90;78.60;;;;;;5065073;28;20195;-91
2022/09/18 10:29:39;;;;;;;5.40;1.73;;;11.00;79.20;;;;;;5065586;28;20241;-91
2022/09/18 10:32:06;;;;;;;6.57;1.50;;;11.00;80.00;;;;;;5067981;28;20183;-92
2022/09/18 10:34:44;;;;;;;7.50;1.53;;;11.40;80.00;;;;;;5066000;28;20178;-91
2022/09/18 10:37:28;;;;;;;4.00;1.67;;;12.00;78.60;;;;;;5060843;28;20190;-91
2022/09/18 10:39:56;;;;;;;4.17;1.30;;;12.40;75.40;;;;;;5059426;28;20175;-91
2022/09/18 10:42:28;;;;;;;3.43;1.10;;;12.50;76.10;;;;;;5067854;28;20171;-92
2022/09/18 10:45:01;;;;;;;8.33;1.50;;;12.60;73.70;;;;;;5066564;28;20179;-91
2022/09/18 10:47:29;;;;;;;7.63;1.83;;;12.40;73.70;;;;;;5060009;28;20199;-92
2022/09/18 10:50:01;;;;;;;4.17;1.30;;;12.50;75.40;;;;;;5064309;28;20207;-91
2022/09/18 10:52:38;;;;;;;6.57;1.53;;;12.30;76.50;;;;;;5061676;28;20175;-92
2022/09/18 10:55:07;;;;;;;5.10;1.33;;;12.50;76.70;;;;;;5065222;28;20182;-90
2022/09/18 10:57:42;;;;;;;4.00;1.60;;;12.40;72.10;;;;;;5057640;28;20557;-89
2022/09/18 11:00:11;;;;;;;5.47;1.77;;;12.10;73.00;;;;;;5056895;28;20663;-90
2022/09/18 11:02:53;;;;;;;5.60;1.80;;;12.00;74.00;;;;;;5055926;28;20176;-90
2022/09/18 11:05:22;;;;;;;4.20;1.17;;;11.80;74.00;;;;;;5056372;28;20285;-89
2022/09/18 11:07:49;;;;;;;4.90;1.27;;;11.80;72.40;;;;;;5055982;28;20191;-89
2022/09/18 11:10:20;;;;;;;4.63;1.33;;;12.10;74.10;;;;;;5056022;28;20553;-90
2022/09/18 11:12:48;;;;;;;5.07;1.67;;;12.30;74.00;;;;;;5056727;28;20722;-88
2022/09/18 11:15:17;;;;;;;4.73;1.70;;;12.50;74.50;;;;;;5056249;28;20168;-90
2022/09/18 11:17:52;;;;;;;4.20;1.37;;;12.30;73.20;;;;;;5055791;28;20203;-89
2022/09/18 11:20:26;;;;;;;6.70;1.27;;;12.40;72.90;;;;;;5056035;28;20269;-89
2022/09/18 11:22:52;;;;;;;5.77;1.60;;;12.80;73.30;;;;;;5074312;28;20232;-88
2022/09/18 11:25:22;;;;;;;9.83;1.60;;;12.80;70.70;;;;;;5055523;28;20175;-87
2022/09/18 11:27:50;;;;;;;6.47;1.50;;;13.20;70.80;;;;;;5073498;28;20214;-88
2022/09/18 11:30:23;;;;;;;6.03;1.67;;;13.60;71.80;;;;;;5055634;28;20222;-89
2022/09/18 11:33:01;;;;;;;5.50;1.40;;;13.90;71.00;;;;;;5056436;28;20589;-89
2022/09/18 11:35:29;;;;;;;13.50;2.17;;;13.20;70.80;;;;;;5073193;28;20151;-89
2022/09/18 11:37:58;;;;;;;13.37;2.27;;;13.00;71.50;;;;;;5055521;28;20593;-89
2022/09/18 11:40:43;;;;;;;8.53;2.00;;;12.30;75.30;;;;;;5057854;28;20661;-89
2022/09/18 11:43:29;;;;;;;13.30;2.20;;;11.50;78.30;;;;;;5056297;28;20168;-89
2022/09/18 11:46:21;;;;;;;8.40;2.03;;;11.30;78.50;;;;;;5057507;28;20254;-89
2022/09/18 11:48:57;;;;;;;8.07;1.90;;;11.50;77.90;;;;;;5056575;28;20177;-90
2022/09/18 11:51:42;;;;;;;12.43;2.30;;;11.70;79.40;;;;;;5064567;28;20167;-91
2022/09/18 11:54:36;;;;;;;9.53;2.00;;;12.00;79.10;;;;;;5070347;28;20163;-92
2022/09/18 11:57:09;;;;;;;12.27;2.23;;;12.20;78.50;;;;;;5065140;28;20214;-91
2022/09/18 11:59:46;;;;;;;12.77;1.83;;;12.40;77.50;;;;;;5064166;28;20503;-90
2022/09/18 12:02:50;;;;;;;12.60;2.13;;;12.40;76.60;;;;;;5073324;28;20179;-91
2022/09/18 12:05:19;;;;;;;7.60;1.87;;;12.30;76.40;;;;;;5073634;28;20167;-91
2022/09/18 12:08:16;;;;;;;11.40;2.13;;;12.70;78.30;;;;;;5060244;28;20199;-90
2022/09/18 12:10:56;;;;;;;8.80;1.77;;;13.40;78.70;;;;;;5070092;28;20194;-91
2022/09/18 12:14:08;;;;;;;14.53;3.13;;;13.20;76.30;;;;;;5060882;28;20193;-91
2022/09/18 12:16:53;;;;;;;10.03;2.27;;;12.80;78.30;;;;;;4986034;28;20253;-92
2022/09/18 12:19:34;;;;;;;9.87;1.77;;;12.30;78.80;;;;;;5057237;28;20190;-91
2022/09/18 12:22:23;;;;;;;10.30;2.53;;;12.00;80.40;;;;;;5059645;28;20219;-92
2022/09/18 12:24:50;;;;;;;6.87;2.33;;;12.60;81.70;;;;;;5058209;28;20232;-90
2022/09/18 12:27:32;;;;;;;7.97;2.17;;;13.10;82.00;;;;;;5059674;28;20198;-90
2022/09/18 12:30:11;;;;;;;9.40;2.10;;;13.50;82.10;;;;;;5063193;28;20196;-89
2022/09/18 12:33:01;;;;;;;4.60;1.57;;;13.90;80.60;;;;;;5076275;28;20151;-90
2022/09/18 12:35:56;;;;;;;7.33;1.80;;;13.40;78.20;;;;;;5061391;28;20194;-91
2022/09/18 12:38:46;;;;;;;8.00;1.73;;;13.30;76.20;;;;;;5059266;28;20171;-90
2022/09/18 12:41:38;;;;;;;4.70;1.70;;;13.30;76.80;;;;;;5061532;28;20267;-90
2022/09/18 12:44:25;;;;;;;7.00;2.00;;;13.10;77.10;;;;;;5058003;28;20172;-89
2022/09/18 12:47:25;;;;;;;9.80;1.63;;;12.80;77.70;;;;;;5060425;28;20221;-90
2022/09/18 12:50:22;;;;;;;9.60;1.30;;;12.70;78.60;;;;;;5061286;28;20241;-90
2022/09/18 12:52:51;;;;;;;5.63;1.40;;;12.40;79.80;;;;;;5062372;28;20168;-91
2022/09/18 12:55:41;;;;;;;8.77;1.87;;;12.30;80.10;;;;;;5064097;28;20179;-89
2022/09/18 12:58:38;;;;;;;6.17;1.70;;;12.30;80.70;;;;;;5062525;28;20166;-90
2022/09/18 13:01:15;;;;;;;9.57;1.60;;;12.20;81.30;;;;;;5060464;28;20167;-89
2022/09/18 13:03:42;;;;;;;4.00;1.50;;;12.20;81.40;;;;;;5060339;28;20258;-90
2022/09/18 13:06:13;;;;;;;7.77;1.67;;;12.10;80.90;;;;;;5059303;28;20195;-90
2022/09/18 13:09:22;;;;;;;5.23;1.63;;;12.20;81.40;;;;;;5061240;28;20195;-90
2022/09/18 13:11:52;;;;;;;8.67;2.00;;;12.30;81.40;;;;;;4982408;28;20201;-91